AAL3187 KLGA-KDCA
Flight info
| Callsign | AAL3187 |
|---|---|
| Flight time | 0h 42m |
| Altitude | 32000 |
| Route | BIGGY Q75 MXE CLIPR3 |
| Aircraft | A319/M-SDE3FGHIRWY/LB1 |
Departure
| Time | 2026-05-05 15:41 |
|---|---|
| Airport | LaGuardia Airport (KLGA) |
Arrival
| Time | 2026-05-05 16:23 |
|---|---|
| Airport | Ronald Reagan Washington National Airport (KDCA) |
| Time | Latitude | Longitude | Altitude | Speed | Heading |
|---|---|---|---|---|---|
| 2026-05-05 15:16 | 40.77577 | -73.87431 | 20 ft | 0 kts | 108° |
| 2026-05-05 15:34 | 40.77584 | -73.87456 | 20 ft | 4 kts | 108° |
| 2026-05-05 15:34 | 40.77590 | -73.87483 | 22 ft | 4 kts | 105° |
| 2026-05-05 15:34 | 40.77591 | -73.87512 | 21 ft | 4 kts | 45° |
| 2026-05-05 15:35 | 40.77571 | -73.87530 | 21 ft | 4 kts | 32° |
| 2026-05-05 15:35 | 40.77556 | -73.87543 | 21 ft | 0 kts | 32° |
| 2026-05-05 15:35 | 40.77576 | -73.87527 | 21 ft | 4 kts | 32° |
| 2026-05-05 15:35 | 40.77585 | -73.87519 | 21 ft | 0 kts | 32° |
| 2026-05-05 15:37 | 40.77594 | -73.87512 | 21 ft | 3 kts | 32° |
| 2026-05-05 15:37 | 40.77617 | -73.87493 | 20 ft | 5 kts | 32° |
| 2026-05-05 15:38 | 40.77653 | -73.87462 | 20 ft | 7 kts | 32° |
| 2026-05-05 15:38 | 40.77707 | -73.87445 | 19 ft | 10 kts | 348° |
| 2026-05-05 15:38 | 40.77778 | -73.87400 | 15 ft | 14 kts | 23° |
| 2026-05-05 15:38 | 40.77880 | -73.87381 | 14 ft | 14 kts | 355° |
| 2026-05-05 15:39 | 40.77937 | -73.87480 | 17 ft | 14 kts | 302° |
| 2026-05-05 15:39 | 40.77991 | -73.87592 | 15 ft | 16 kts | 302° |
| 2026-05-05 15:39 | 40.78053 | -73.87719 | 16 ft | 17 kts | 302° |
| 2026-05-05 15:39 | 40.78117 | -73.87843 | 18 ft | 16 kts | 320° |
| 2026-05-05 15:40 | 40.78216 | -73.87833 | 18 ft | 15 kts | 72° |
| 2026-05-05 15:40 | 40.78158 | -73.87701 | 16 ft | 22 kts | 123° |
| 2026-05-05 15:40 | 40.77929 | -73.87224 | 15 ft | 101 kts | 122° |
| 2026-05-05 15:40 | 40.77435 | -73.86193 | 68 ft | 156 kts | 125° |
| 2026-05-05 15:41 | 40.76877 | -73.84994 | 798 ft | 151 kts | 126° |
| 2026-05-05 15:41 | 40.76096 | -73.84102 | 1376 ft | 150 kts | 166° |
| 2026-05-05 15:41 | 40.75084 | -73.83734 | 1958 ft | 160 kts | 176° |
| 2026-05-05 15:41 | 40.73900 | -73.83394 | 2343 ft | 187 kts | 175° |
| 2026-05-05 15:42 | 40.72541 | -73.82990 | 2795 ft | 212 kts | 178° |
| 2026-05-05 15:42 | 40.71082 | -73.83236 | 3382 ft | 215 kts | 213° |
| 2026-05-05 15:42 | 40.69989 | -73.84517 | 4382 ft | 211 kts | 232° |
| 2026-05-05 15:42 | 40.69031 | -73.85988 | 5396 ft | 212 kts | 231° |
| 2026-05-05 15:43 | 40.68086 | -73.87486 | 6416 ft | 214 kts | 236° |
| 2026-05-05 15:43 | 40.67578 | -73.89332 | 7344 ft | 220 kts | 261° |
| 2026-05-05 15:43 | 40.67790 | -73.91392 | 7990 ft | 250 kts | 287° |
| 2026-05-05 15:43 | 40.68684 | -73.93473 | 8697 ft | 267 kts | 295° |
| 2026-05-05 15:44 | 40.69466 | -73.95678 | 9647 ft | 264 kts | 281° |
| 2026-05-05 15:44 | 40.69723 | -73.98047 | 10537 ft | 263 kts | 266° |
| 2026-05-05 15:44 | 40.69415 | -74.00508 | 10921 ft | 284 kts | 250° |
| 2026-05-05 15:44 | 40.68703 | -74.03045 | 11255 ft | 306 kts | 249° |
| 2026-05-05 15:45 | 40.67943 | -74.05717 | 11913 ft | 315 kts | 249° |
| 2026-05-05 15:45 | 40.67171 | -74.08433 | 12720 ft | 318 kts | 249° |
| 2026-05-05 15:45 | 40.66396 | -74.11182 | 13552 ft | 322 kts | 250° |
| 2026-05-05 15:45 | 40.65615 | -74.13966 | 14307 ft | 326 kts | 250° |
| 2026-05-05 15:46 | 40.64826 | -74.16790 | 14995 ft | 331 kts | 250° |
| 2026-05-05 15:46 | 40.64028 | -74.19652 | 15658 ft | 336 kts | 250° |
| 2026-05-05 15:46 | 40.63216 | -74.22561 | 16323 ft | 341 kts | 251° |
| 2026-05-05 15:46 | 40.62390 | -74.25516 | 16985 ft | 346 kts | 251° |
| 2026-05-05 15:47 | 40.61835 | -74.27488 | 17416 ft | 350 kts | 251° |
| 2026-05-05 15:47 | 40.60979 | -74.30513 | 18078 ft | 355 kts | 251° |
| 2026-05-05 15:47 | 40.59820 | -74.34624 | 18859 ft | 361 kts | 251° |
| 2026-05-05 15:47 | 40.59239 | -74.36684 | 19257 ft | 364 kts | 250° |
| 2026-05-05 15:48 | 40.58354 | -74.39823 | 19889 ft | 367 kts | 250° |
| 2026-05-05 15:48 | 40.57462 | -74.42988 | 20482 ft | 371 kts | 250° |
| 2026-05-05 15:48 | 40.56265 | -74.47227 | 21215 ft | 376 kts | 250° |
| 2026-05-05 15:48 | 40.55354 | -74.50447 | 21755 ft | 380 kts | 250° |
| 2026-05-05 15:49 | 40.54424 | -74.53728 | 22298 ft | 384 kts | 250° |
| 2026-05-05 15:49 | 40.53791 | -74.55955 | 22648 ft | 386 kts | 250° |
| 2026-05-05 15:49 | 40.52843 | -74.59279 | 23166 ft | 390 kts | 250° |
| 2026-05-05 15:49 | 40.51888 | -74.62634 | 23629 ft | 394 kts | 250° |
| 2026-05-05 15:50 | 40.50925 | -74.66022 | 24060 ft | 397 kts | 250° |
| 2026-05-05 15:50 | 40.49956 | -74.69429 | 24476 ft | 400 kts | 250° |
| 2026-05-05 15:50 | 40.48975 | -74.72867 | 24902 ft | 403 kts | 250° |
| 2026-05-05 15:50 | 40.47988 | -74.76326 | 25337 ft | 406 kts | 250° |
| 2026-05-05 15:51 | 40.46994 | -74.79799 | 25759 ft | 408 kts | 250° |
| 2026-05-05 15:51 | 40.45988 | -74.83309 | 26192 ft | 411 kts | 250° |
| 2026-05-05 15:51 | 40.44973 | -74.86830 | 26599 ft | 414 kts | 250° |
| 2026-05-05 15:51 | 40.43962 | -74.90328 | 26998 ft | 416 kts | 250° |
| 2026-05-05 15:52 | 40.42918 | -74.93882 | 27382 ft | 419 kts | 248° |
| 2026-05-05 15:52 | 40.41554 | -74.97286 | 27764 ft | 424 kts | 239° |
| 2026-05-05 15:52 | 40.39764 | -75.00385 | 28131 ft | 430 kts | 230° |
| 2026-05-05 15:52 | 40.37711 | -75.03259 | 28495 ft | 433 kts | 230° |
| 2026-05-05 15:53 | 40.35645 | -75.06145 | 28843 ft | 435 kts | 229° |
| 2026-05-05 15:53 | 40.33571 | -75.09052 | 29139 ft | 439 kts | 230° |
| 2026-05-05 15:53 | 40.31481 | -75.11987 | 29257 ft | 442 kts | 230° |
| 2026-05-05 15:53 | 40.29379 | -75.14936 | 29015 ft | 444 kts | 230° |
| 2026-05-05 15:54 | 40.27268 | -75.17890 | 28465 ft | 442 kts | 230° |
| 2026-05-05 15:54 | 40.25163 | -75.20829 | 27208 ft | 440 kts | 229° |
| 2026-05-05 15:54 | 40.23089 | -75.23725 | 26046 ft | 432 kts | 229° |
| 2026-05-05 15:54 | 40.21038 | -75.26586 | 24969 ft | 431 kts | 229° |
| 2026-05-05 15:55 | 40.18992 | -75.29433 | 24175 ft | 427 kts | 229° |
| 2026-05-05 15:55 | 40.16964 | -75.32251 | 23393 ft | 423 kts | 228° |
| 2026-05-05 15:55 | 40.14983 | -75.35001 | 22592 ft | 418 kts | 228° |
| 2026-05-05 15:55 | 40.13006 | -75.37750 | 21917 ft | 414 kts | 229° |
| 2026-05-05 15:56 | 40.11047 | -75.40477 | 21533 ft | 410 kts | 229° |
| 2026-05-05 15:56 | 40.09097 | -75.43195 | 21448 ft | 410 kts | 229° |
| 2026-05-05 15:56 | 40.07137 | -75.45920 | 21209 ft | 411 kts | 229° |
| 2026-05-05 15:56 | 40.05186 | -75.48625 | 20874 ft | 408 kts | 229° |
| 2026-05-05 15:57 | 40.03242 | -75.51316 | 20615 ft | 406 kts | 229° |
| 2026-05-05 15:57 | 40.01309 | -75.53985 | 20348 ft | 404 kts | 229° |
| 2026-05-05 15:57 | 39.99384 | -75.56640 | 20077 ft | 402 kts | 229° |
| 2026-05-05 15:57 | 39.97471 | -75.59272 | 19833 ft | 400 kts | 229° |
| 2026-05-05 15:58 | 39.95561 | -75.61900 | 19570 ft | 398 kts | 229° |
| 2026-05-05 15:58 | 39.93661 | -75.64513 | 19311 ft | 396 kts | 230° |
| 2026-05-05 15:58 | 39.91816 | -75.67155 | 19055 ft | 392 kts | 234° |
| 2026-05-05 15:58 | 39.90262 | -75.70046 | 18805 ft | 388 kts | 239° |
| 2026-05-05 15:59 | 39.88758 | -75.72958 | 18533 ft | 387 kts | 238° |
| 2026-05-05 15:59 | 39.87253 | -75.75854 | 18281 ft | 385 kts | 238° |
| 2026-05-05 15:59 | 39.85751 | -75.78732 | 18016 ft | 383 kts | 238° |
| 2026-05-05 15:59 | 39.84253 | -75.81596 | 17781 ft | 383 kts | 238° |
| 2026-05-05 16:00 | 39.82759 | -75.84454 | 17528 ft | 381 kts | 238° |
| 2026-05-05 16:00 | 39.81272 | -75.87294 | 17284 ft | 379 kts | 238° |
| 2026-05-05 16:00 | 39.79788 | -75.90123 | 17040 ft | 377 kts | 238° |
| 2026-05-05 16:00 | 39.78314 | -75.92937 | 16792 ft | 375 kts | 238° |
| 2026-05-05 16:01 | 39.76849 | -75.95738 | 16547 ft | 374 kts | 238° |
| 2026-05-05 16:01 | 39.75408 | -75.98487 | 16308 ft | 372 kts | 238° |
| 2026-05-05 16:01 | 39.73949 | -76.01267 | 16058 ft | 371 kts | 238° |
| 2026-05-05 16:01 | 39.72502 | -76.04028 | 15829 ft | 369 kts | 238° |
| 2026-05-05 16:02 | 39.71058 | -76.06772 | 15598 ft | 367 kts | 237° |
| 2026-05-05 16:02 | 39.69620 | -76.09500 | 15358 ft | 365 kts | 237° |
| 2026-05-05 16:02 | 39.68191 | -76.12214 | 15121 ft | 363 kts | 237° |
| 2026-05-05 16:02 | 39.66771 | -76.14910 | 14906 ft | 361 kts | 237° |
| 2026-05-05 16:03 | 39.65355 | -76.17600 | 14655 ft | 360 kts | 237° |
| 2026-05-05 16:03 | 39.63939 | -76.20283 | 14409 ft | 359 kts | 237° |
| 2026-05-05 16:03 | 39.62530 | -76.22947 | 14198 ft | 357 kts | 237° |
| 2026-05-05 16:03 | 39.61125 | -76.25595 | 13960 ft | 355 kts | 237° |
| 2026-05-05 16:04 | 39.59715 | -76.28219 | 13720 ft | 354 kts | 234° |
| 2026-05-05 16:04 | 39.58037 | -76.30545 | 13477 ft | 355 kts | 224° |
| 2026-05-05 16:04 | 39.56043 | -76.32432 | 13248 ft | 355 kts | 217° |
| 2026-05-05 16:04 | 39.53991 | -76.34206 | 13012 ft | 353 kts | 217° |
| 2026-05-05 16:05 | 39.51951 | -76.35973 | 12786 ft | 352 kts | 217° |
| 2026-05-05 16:05 | 39.49924 | -76.37732 | 12556 ft | 350 kts | 217° |
| 2026-05-05 16:05 | 39.47907 | -76.39485 | 12329 ft | 348 kts | 217° |
| 2026-05-05 16:05 | 39.45907 | -76.41227 | 12102 ft | 346 kts | 217° |
| 2026-05-05 16:06 | 39.43914 | -76.42963 | 11889 ft | 344 kts | 217° |
| 2026-05-05 16:06 | 39.41952 | -76.44669 | 11773 ft | 344 kts | 217° |
| 2026-05-05 16:06 | 39.39967 | -76.46394 | 11629 ft | 343 kts | 217° |
| 2026-05-05 16:06 | 39.37987 | -76.48113 | 11480 ft | 343 kts | 217° |
| 2026-05-05 16:07 | 39.36008 | -76.49828 | 11378 ft | 342 kts | 217° |
| 2026-05-05 16:07 | 39.34037 | -76.51533 | 11242 ft | 341 kts | 216° |
| 2026-05-05 16:07 | 39.32076 | -76.53228 | 11095 ft | 335 kts | 216° |
| 2026-05-05 16:07 | 39.30190 | -76.54854 | 10963 ft | 316 kts | 216° |
| 2026-05-05 16:08 | 39.28407 | -76.56382 | 10835 ft | 298 kts | 217° |
| 2026-05-05 16:08 | 39.26732 | -76.57814 | 10680 ft | 280 kts | 217° |
| 2026-05-05 16:08 | 39.25157 | -76.59163 | 10554 ft | 265 kts | 217° |
| 2026-05-05 16:08 | 39.23646 | -76.60462 | 10363 ft | 257 kts | 217° |
| 2026-05-05 16:09 | 39.22172 | -76.61733 | 10300 ft | 254 kts | 217° |
| 2026-05-05 16:09 | 39.20706 | -76.63001 | 10231 ft | 254 kts | 217° |
| 2026-05-05 16:09 | 39.19244 | -76.64268 | 10135 ft | 253 kts | 217° |
| 2026-05-05 16:09 | 39.17785 | -76.65531 | 10031 ft | 252 kts | 217° |
| 2026-05-05 16:10 | 39.16418 | -76.66927 | 9904 ft | 250 kts | 225° |
| 2026-05-05 16:10 | 39.15145 | -76.68445 | 9710 ft | 249 kts | 225° |
| 2026-05-05 16:10 | 39.13875 | -76.69958 | 9527 ft | 249 kts | 224° |
| 2026-05-05 16:10 | 39.12601 | -76.71468 | 9392 ft | 249 kts | 224° |
| 2026-05-05 16:11 | 39.11345 | -76.72957 | 9218 ft | 248 kts | 224° |
| 2026-05-05 16:11 | 39.07531 | -76.77475 | 8698 ft | 249 kts | 224° |
| 2026-05-05 16:12 | 39.06250 | -76.78988 | 8529 ft | 250 kts | 224° |
| 2026-05-05 16:12 | 39.03696 | -76.82010 | 8178 ft | 249 kts | 224° |
| 2026-05-05 16:13 | 38.99861 | -76.86528 | 7654 ft | 249 kts | 224° |
| 2026-05-05 16:13 | 38.98599 | -76.88051 | 7480 ft | 249 kts | 228° |
| 2026-05-05 16:13 | 38.97675 | -76.89915 | 7303 ft | 249 kts | 246° |
| 2026-05-05 16:14 | 38.97353 | -76.94342 | 6946 ft | 256 kts | 269° |
| 2026-05-05 16:14 | 38.97513 | -76.98901 | 6580 ft | 255 kts | 268° |
| 2026-05-05 16:15 | 38.98394 | -77.03337 | 6206 ft | 267 kts | 297° |
| 2026-05-05 16:15 | 39.01016 | -77.06810 | 5820 ft | 271 kts | 311° |
| 2026-05-05 16:16 | 39.03750 | -77.10099 | 5438 ft | 263 kts | 312° |
| 2026-05-05 16:16 | 39.06351 | -77.13314 | 5079 ft | 257 kts | 311° |
| 2026-05-05 16:17 | 39.07939 | -77.17160 | 4704 ft | 243 kts | 271° |
| 2026-05-05 16:17 | 39.07704 | -77.19288 | 4516 ft | 241 kts | 248° |
| 2026-05-05 16:18 | 39.05488 | -77.22226 | 4154 ft | 236 kts | 203° |
| 2026-05-05 16:18 | 39.03877 | -77.22614 | 3979 ft | 240 kts | 182° |
| 2026-05-05 16:18 | 39.00889 | -77.20843 | 3602 ft | 243 kts | 138° |
| 2026-05-05 16:19 | 38.99705 | -77.19335 | 3427 ft | 237 kts | 139° |
| 2026-05-05 16:19 | 38.98545 | -77.17870 | 3246 ft | 231 kts | 139° |
| 2026-05-05 16:19 | 38.96296 | -77.15047 | 2889 ft | 222 kts | 141° |
| 2026-05-05 16:20 | 38.94051 | -77.12510 | 2357 ft | 210 kts | 144° |
| 2026-05-05 16:20 | 38.91823 | -77.10444 | 1822 ft | 180 kts | 149° |
| 2026-05-05 16:21 | 38.90409 | -77.07880 | 1160 ft | 177 kts | 119° |
| 2026-05-05 16:22 | 38.88414 | -77.04747 | 547 ft | 132 kts | 140° |
| 2026-05-05 16:22 | 38.86841 | -77.03926 | 219 ft | 124 kts | 178° |
| 2026-05-05 16:23 | 38.85317 | -77.03785 | 23 ft | 62 kts | 175° |
| 2026-05-05 16:23 | 38.84964 | -77.03756 | 24 ft | 45 kts | 177° |
| 2026-05-05 16:23 | 38.84460 | -77.03713 | 24 ft | 20 kts | 185° |
| 2026-05-05 16:24 | 38.84393 | -77.03813 | 25 ft | 16 kts | 285° |
| 2026-05-05 16:24 | 38.84496 | -77.03851 | 25 ft | 17 kts | 356° |
| 2026-05-05 16:24 | 38.84760 | -77.03882 | 24 ft | 21 kts | 354° |
| 2026-05-05 16:25 | 38.84912 | -77.03897 | 24 ft | 23 kts | 356° |
| 2026-05-05 16:25 | 38.85203 | -77.03924 | 24 ft | 20 kts | 355° |
| 2026-05-05 16:25 | 38.85350 | -77.03938 | 24 ft | 21 kts | 356° |
| 2026-05-05 16:26 | 38.85558 | -77.03986 | 24 ft | 9 kts | 288° |
| 2026-05-05 16:26 | 38.85501 | -77.04087 | 24 ft | 3 kts | 218° |
| 2026-05-05 16:27 | 38.85483 | -77.04105 | 24 ft | 1 kts | 217° |
| 2026-05-05 16:27 | 38.85482 | -77.04106 | 24 ft | 0 kts | 217° |